createdAt,value
2022-09-12T00:00:16.419Z,95.46
2022-09-12T00:02:42.984Z,95.99
2022-09-12T00:05:09.585Z,96.66
2022-09-12T00:07:36.177Z,96.34
2022-09-12T00:10:02.906Z,97.18
2022-09-12T00:12:29.478Z,96.19
2022-09-12T00:14:56.051Z,97.18
2022-09-12T00:17:22.637Z,97.21
2022-09-12T00:19:49.225Z,97.09
2022-09-12T00:22:15.806Z,97.60
2022-09-12T00:24:42.506Z,97.21
2022-09-12T00:27:09.186Z,95.56
2022-09-12T00:29:35.875Z,97.54
2022-09-12T00:32:02.562Z,98.90
2022-09-12T00:34:29.135Z,98.75
2022-09-12T00:36:55.718Z,97.61
2022-09-12T00:39:22.328Z,97.08
2022-09-12T00:41:48.892Z,97.46
2022-09-12T00:44:15.405Z,97.21
2022-09-12T00:46:46.073Z,95.44
2022-09-12T00:49:14.594Z,94.61
2022-09-12T00:51:48.245Z,94.36
2022-09-12T00:54:22.724Z,96.57
2022-09-12T00:56:52.131Z,96.44
2022-09-12T00:59:24.403Z,96.82
2022-09-12T01:01:52.528Z,96.21
2022-09-12T01:04:24.898Z,97.16
2022-09-12T01:06:53.044Z,95.05
2022-09-12T01:09:22.541Z,96.55
2022-09-12T01:11:51.785Z,97.61
2022-09-12T01:14:19.852Z,96.92
2022-09-12T01:16:47.980Z,97.14
2022-09-12T01:19:33.335Z,98.43
2022-09-12T01:22:18.549Z,97.81
2022-09-12T01:24:55.031Z,96.89
2022-09-12T01:27:24.657Z,97.59
2022-09-12T01:30:04.819Z,97.49
2022-09-12T01:32:47.081Z,97.79
2022-09-12T01:35:22.661Z,97.24
2022-09-12T01:38:24.404Z,96.67
2022-09-12T01:41:24.679Z,97.87
2022-09-12T01:44:32.584Z,98.40
2022-09-12T01:47:10.105Z,97.66
2022-09-12T01:49:41.500Z,98.10
2022-09-12T01:52:19.844Z,97.33
2022-09-12T01:55:11.112Z,98.42
2022-09-12T01:57:46.266Z,99.63
2022-09-12T02:00:13.527Z,100.00
2022-09-12T02:02:51.187Z,100.00
2022-09-12T02:05:25.728Z,100.00
2022-09-12T02:08:02.717Z,100.00
2022-09-12T02:10:41.837Z,100.00
2022-09-12T02:13:31.136Z,100.00
2022-09-12T02:16:20.117Z,100.00
2022-09-12T02:18:52.656Z,98.52
2022-09-12T02:21:23.187Z,97.21
2022-09-12T02:23:57.682Z,100.00
2022-09-12T02:26:36.433Z,100.00
2022-09-12T02:29:03.670Z,100.00
2022-09-12T02:31:53.696Z,99.66
2022-09-12T02:34:27.647Z,99.63
2022-09-12T02:37:13.848Z,100.00
2022-09-12T02:39:45.025Z,99.23
2022-09-12T02:42:12.752Z,99.33
2022-09-12T02:44:40.092Z,99.83
2022-09-12T02:47:27.494Z,100.00
2022-09-12T02:49:54.751Z,100.00
2022-09-12T02:52:21.722Z,100.00
2022-09-12T02:54:48.484Z,100.00
2022-09-12T02:57:23.152Z,100.00
2022-09-12T02:59:54.274Z,100.00
2022-09-12T03:02:39.469Z,100.00
2022-09-12T03:05:27.731Z,100.00
2022-09-12T03:08:09.451Z,100.00
2022-09-12T03:10:57.824Z,100.00
2022-09-12T03:13:40.607Z,100.00
2022-09-12T03:16:29.532Z,100.00
2022-09-12T03:19:17.939Z,100.00
2022-09-12T03:22:18.552Z,100.00
2022-09-12T03:24:57.004Z,100.00
2022-09-12T03:27:34.713Z,100.00
2022-09-12T03:30:04.594Z,100.00
2022-09-12T03:32:48.986Z,100.00
2022-09-12T03:35:22.261Z,100.00
2022-09-12T03:37:51.370Z,100.00
2022-09-12T03:40:18.331Z,100.00
2022-09-12T03:42:44.903Z,100.00
2022-09-12T03:45:12.133Z,100.00
2022-09-12T03:47:38.726Z,100.00
2022-09-12T03:50:06.545Z,100.00
2022-09-12T03:52:33.557Z,100.00
2022-09-12T03:55:00.171Z,100.00
2022-09-12T03:57:26.914Z,100.00
2022-09-12T03:59:53.531Z,100.00
2022-09-12T04:02:20.137Z,100.00
2022-09-12T04:04:46.847Z,100.00
2022-09-12T04:07:13.431Z,100.00
2022-09-12T04:09:40.097Z,100.00
2022-09-12T04:12:07.365Z,100.00
2022-09-12T04:14:34.154Z,100.00
2022-09-12T04:17:01.080Z,100.00
2022-09-12T04:19:28.124Z,100.00
2022-09-12T04:21:54.701Z,100.00
2022-09-12T04:24:21.318Z,100.00
2022-09-12T04:26:47.952Z,100.00
2022-09-12T04:29:15.106Z,100.00
2022-09-12T04:31:41.899Z,100.00
2022-09-12T04:34:09.011Z,100.00
2022-09-12T04:36:35.609Z,100.00
2022-09-12T04:39:03.916Z,100.00
2022-09-12T04:41:33.652Z,100.00
2022-09-12T04:44:03.360Z,100.00
2022-09-12T04:46:32.357Z,99.50
2022-09-12T04:48:59.116Z,99.41
2022-09-12T04:51:28.647Z,98.46
2022-09-12T04:53:58.840Z,99.19
2022-09-12T04:56:26.607Z,99.69
2022-09-12T04:58:53.243Z,98.77
2022-09-12T05:01:21.815Z,99.54
2022-09-12T05:03:51.196Z,98.79
2022-09-12T05:06:29.984Z,97.93
2022-09-12T05:08:57.469Z,98.24
2022-09-12T05:11:53.046Z,97.55
2022-09-12T05:14:19.217Z,96.65
2022-09-12T05:16:49.216Z,97.26
2022-09-12T05:19:16.699Z,95.72
2022-09-12T05:21:43.286Z,96.55
2022-09-12T05:24:10.981Z,96.05
2022-09-12T05:26:37.620Z,96.22
2022-09-12T05:29:05.159Z,96.10
2022-09-12T05:31:31.739Z,95.52
2022-09-12T05:33:58.335Z,95.48
2022-09-12T05:36:27.902Z,94.33
2022-09-12T05:38:54.501Z,94.76
2022-09-12T05:41:25.159Z,94.78
2022-09-12T05:43:56.826Z,94.43
2022-09-12T05:46:25.923Z,94.05
2022-09-12T05:48:56.079Z,93.12
2022-09-12T05:51:33.618Z,91.84
2022-09-12T05:54:01.532Z,91.28
2022-09-12T05:56:31.088Z,89.96
2022-09-12T05:59:03.681Z,88.58
2022-09-12T06:01:32.178Z,89.07
2022-09-12T06:04:00.807Z,88.04
2022-09-12T06:06:29.439Z,88.18
2022-09-12T06:09:01.220Z,85.38
2022-09-12T06:11:31.065Z,87.41
2022-09-12T06:13:58.476Z,86.69
2022-09-12T06:16:30.633Z,85.54
2022-09-12T06:19:00.028Z,87.11
2022-09-12T06:21:27.401Z,86.26
2022-09-12T06:23:55.519Z,85.65
2022-09-12T06:26:22.781Z,84.50
2022-09-12T06:28:50.639Z,83.21
2022-09-12T06:31:22.723Z,83.32
2022-09-12T06:33:51.805Z,82.66
2022-09-12T06:36:19.664Z,83.33
2022-09-12T06:38:46.425Z,82.68
2022-09-12T06:41:13.669Z,81.67
2022-09-12T06:43:41.780Z,82.46
2022-09-12T06:46:09.908Z,81.81
2022-09-12T06:48:41.594Z,78.85
2022-09-12T06:51:14.102Z,77.86
2022-09-12T06:53:41.827Z,79.11
2022-09-12T06:56:15.216Z,78.36
2022-09-12T06:58:43.037Z,79.37
2022-09-12T07:01:30.529Z,79.19
2022-09-12T07:03:59.619Z,76.79
2022-09-12T07:06:31.115Z,76.25
2022-09-12T07:08:59.073Z,75.67
2022-09-12T07:11:29.116Z,76.08
2022-09-12T07:13:56.494Z,77.12
2022-09-12T07:16:23.278Z,76.30
2022-09-12T07:18:58.932Z,75.71
2022-09-12T07:21:26.376Z,75.23
2022-09-12T07:23:52.985Z,74.58
2022-09-12T07:26:19.964Z,73.35
2022-09-12T07:28:51.913Z,73.43
2022-09-12T07:31:19.741Z,73.82
2022-09-12T07:33:49.007Z,73.89
2022-09-12T07:36:20.325Z,72.17
2022-09-12T07:38:47.599Z,71.85
2022-09-12T07:41:19.837Z,71.20
2022-09-12T07:43:46.945Z,71.78
2022-09-12T07:46:14.443Z,70.03
2022-09-12T07:48:41.192Z,69.64
2022-09-12T07:51:10.908Z,69.04
2022-09-12T07:53:40.312Z,69.54
2022-09-12T07:56:08.653Z,69.52
2022-09-12T07:58:36.333Z,68.72
2022-09-12T08:01:13.287Z,69.61
2022-09-12T08:03:41.585Z,68.52
2022-09-12T08:06:09.187Z,69.77
2022-09-12T08:08:37.010Z,68.16
2022-09-12T08:11:10.246Z,66.98
2022-09-12T08:13:38.860Z,65.32
2022-09-12T08:16:08.630Z,64.82
2022-09-12T08:18:36.230Z,65.38
2022-09-12T08:21:07.945Z,64.13
2022-09-12T08:23:34.687Z,64.53
2022-09-12T08:26:06.067Z,64.54
2022-09-12T08:28:34.700Z,64.59
2022-09-12T08:31:02.143Z,63.67
2022-09-12T08:33:29.450Z,62.72
2022-09-12T08:36:03.574Z,63.00
2022-09-12T08:38:30.282Z,63.25
2022-09-12T08:41:05.858Z,63.52
2022-09-12T08:43:54.505Z,63.63
2022-09-12T08:46:32.500Z,61.90
2022-09-12T08:49:01.608Z,62.37
2022-09-12T08:51:31.483Z,63.51
2022-09-12T08:54:00.402Z,62.59
2022-09-12T08:56:32.213Z,62.58
2022-09-12T08:58:58.855Z,63.94
2022-09-12T09:01:36.065Z,61.07
2022-09-12T09:04:26.933Z,61.52
2022-09-12T09:07:03.005Z,62.20
2022-09-12T09:09:41.560Z,60.30
2022-09-12T09:12:29.605Z,59.76
2022-09-12T09:14:56.121Z,57.19
2022-09-12T09:17:32.776Z,58.62
2022-09-12T09:20:27.682Z,57.50
2022-09-12T09:23:12.567Z,57.48
2022-09-12T09:26:17.441Z,56.65
2022-09-12T09:28:48.069Z,57.60
2022-09-12T09:31:16.615Z,56.81
2022-09-12T09:33:44.655Z,59.25
2022-09-12T09:36:22.738Z,56.26
2022-09-12T09:38:54.703Z,58.69
2022-09-12T09:41:30.663Z,55.11
2022-09-12T09:43:58.844Z,54.58
2022-09-12T09:46:27.183Z,56.83
2022-09-12T09:48:55.250Z,57.77
2022-09-12T09:51:28.063Z,56.68
2022-09-12T09:54:00.309Z,55.81
2022-09-12T09:56:41.660Z,55.55
2022-09-12T09:59:28.549Z,56.98
2022-09-12T10:01:59.703Z,55.88
2022-09-12T10:04:32.063Z,56.39
2022-09-12T10:07:01.111Z,58.17
2022-09-12T10:09:33.488Z,55.98
2022-09-12T10:12:20.642Z,56.38
2022-09-12T10:14:59.124Z,55.66
2022-09-12T10:17:47.016Z,56.17
2022-09-12T10:20:34.841Z,56.80
2022-09-12T10:23:16.638Z,55.72
2022-09-12T10:25:47.144Z,55.41
2022-09-12T10:28:23.963Z,55.36
2022-09-12T10:30:55.545Z,55.62
2022-09-12T10:33:25.642Z,54.98
2022-09-12T10:35:54.162Z,54.88
2022-09-12T10:38:31.520Z,56.24
2022-09-12T10:41:03.504Z,55.37
2022-09-12T10:43:33.131Z,55.44
2022-09-12T10:46:19.677Z,56.98
2022-09-12T10:49:12.324Z,55.75
2022-09-12T10:51:38.920Z,55.12
2022-09-12T10:54:10.388Z,55.44
2022-09-12T10:57:06.733Z,54.46
2022-09-12T10:59:56.892Z,54.94
2022-09-12T11:02:35.403Z,54.50
2022-09-12T11:05:10.787Z,54.79
2022-09-12T11:07:53.210Z,55.22
2022-09-12T11:10:50.351Z,54.51
2022-09-12T11:13:37.918Z,55.30
2022-09-12T11:16:13.539Z,55.42
2022-09-12T11:19:21.312Z,56.18
2022-09-12T11:22:28.642Z,55.17
2022-09-12T11:25:28.768Z,54.03
2022-09-12T11:28:04.634Z,52.08
2022-09-12T11:30:54.341Z,53.43
2022-09-12T11:33:39.666Z,53.77
2022-09-12T11:36:17.073Z,53.82
2022-09-12T11:39:20.364Z,53.06
2022-09-12T11:41:57.234Z,51.75
2022-09-12T11:44:33.351Z,50.40
2022-09-12T11:47:05.644Z,48.91
2022-09-12T11:49:38.595Z,49.02
2022-09-12T11:52:13.666Z,50.87
2022-09-12T11:54:54.004Z,50.80
2022-09-12T11:57:31.303Z,51.99
2022-09-12T12:00:15.548Z,50.14
2022-09-12T12:03:00.198Z,51.63
2022-09-12T12:05:32.726Z,52.05
2022-09-12T12:08:01.807Z,53.50
2022-09-12T12:10:44.427Z,54.72
2022-09-12T12:13:21.943Z,53.91
2022-09-12T12:15:53.291Z,54.83
2022-09-12T12:18:25.936Z,53.16
2022-09-12T12:20:54.696Z,53.92
2022-09-12T12:23:31.755Z,53.56
2022-09-12T12:26:03.447Z,54.21
2022-09-12T12:28:53.372Z,54.11
2022-09-12T12:31:20.046Z,53.72
2022-09-12T12:33:46.604Z,54.85
2022-09-12T12:36:35.992Z,54.91
2022-09-12T12:39:41.020Z,53.66
2022-09-12T12:42:07.632Z,53.44
2022-09-12T12:44:45.910Z,53.13
2022-09-12T12:47:42.391Z,54.12
2022-09-12T12:50:17.706Z,51.73
2022-09-12T12:52:51.341Z,52.82
2022-09-12T12:55:27.021Z,51.91
2022-09-12T12:57:56.410Z,51.28
2022-09-12T13:00:25.915Z,50.41
2022-09-12T13:02:58.472Z,51.08
2022-09-12T13:05:27.730Z,50.93
2022-09-12T13:08:21.981Z,51.29
2022-09-12T13:10:51.123Z,49.98
2022-09-12T13:13:28.486Z,50.10
2022-09-12T13:15:55.158Z,49.57
2022-09-12T13:18:24.815Z,48.22
2022-09-12T13:21:08.662Z,50.49
2022-09-12T13:23:35.289Z,51.00
2022-09-12T13:26:03.028Z,51.13
2022-09-12T13:28:31.467Z,51.07
2022-09-12T13:31:20.202Z,51.83
2022-09-12T13:33:53.825Z,51.44
2022-09-12T13:36:29.420Z,51.89
2022-09-12T13:39:10.176Z,50.68
2022-09-12T13:42:16.192Z,49.07
2022-09-12T13:44:52.487Z,51.25
2022-09-12T13:47:34.789Z,47.99
2022-09-12T13:50:04.534Z,47.41
2022-09-12T13:52:37.216Z,47.73
2022-09-12T13:55:12.717Z,47.26
2022-09-12T13:57:39.885Z,46.42
2022-09-12T14:00:18.853Z,47.78
2022-09-12T14:02:47.341Z,45.05
2022-09-12T14:05:20.533Z,45.27
2022-09-12T14:07:57.270Z,44.20
2022-09-12T14:10:35.493Z,43.93
2022-09-12T14:13:09.534Z,43.61
2022-09-12T14:15:37.862Z,45.67
2022-09-12T14:18:06.789Z,44.96
2022-09-12T14:20:37.950Z,43.11
2022-09-12T14:23:17.494Z,43.82
2022-09-12T14:25:45.008Z,43.21
2022-09-12T14:28:14.307Z,41.99
2022-09-12T14:30:40.928Z,39.86
2022-09-12T14:33:10.674Z,40.96
2022-09-12T14:35:52.250Z,40.83
2022-09-12T14:38:30.050Z,41.34
2022-09-12T14:41:08.052Z,40.56
2022-09-12T14:43:37.398Z,40.95
2022-09-12T14:46:14.579Z,40.90
2022-09-12T14:48:51.333Z,41.19
2022-09-12T14:51:49.437Z,40.83
2022-09-12T14:54:33.212Z,40.33
2022-09-12T14:57:05.421Z,41.10
2022-09-12T14:59:34.975Z,40.47
2022-09-12T15:02:13.665Z,38.89
2022-09-12T15:04:40.957Z,40.00
2022-09-12T15:07:34.678Z,41.26
2022-09-12T15:10:05.742Z,40.91
2022-09-12T15:12:32.455Z,39.67
2022-09-12T15:15:07.322Z,40.13
2022-09-12T15:17:34.034Z,39.28
2022-09-12T15:20:00.596Z,39.55
2022-09-12T15:22:27.252Z,40.20
2022-09-12T15:24:53.832Z,40.54
2022-09-12T15:27:20.398Z,39.94
2022-09-12T15:29:46.965Z,40.47
2022-09-12T15:32:13.663Z,39.96
2022-09-12T15:34:40.301Z,41.24
2022-09-12T15:37:13.643Z,40.67
2022-09-12T15:39:40.233Z,39.95
2022-09-12T15:42:08.115Z,41.42
2022-09-12T15:44:34.689Z,40.12
2022-09-12T15:47:01.303Z,40.75
2022-09-12T15:49:27.980Z,40.98
2022-09-12T15:51:54.568Z,40.66
2022-09-12T15:54:21.363Z,41.74
2022-09-12T15:56:47.921Z,42.04
2022-09-12T15:59:14.564Z,41.74
2022-09-12T16:01:41.482Z,41.76
2022-09-12T16:04:25.208Z,40.20
2022-09-12T16:06:52.800Z,42.00
2022-09-12T16:09:19.395Z,41.64
2022-09-12T16:11:46.653Z,42.18
2022-09-12T16:14:20.029Z,42.55
2022-09-12T16:16:52.683Z,43.34
2022-09-12T16:19:19.429Z,42.01
2022-09-12T16:21:46.727Z,42.63
2022-09-12T16:24:13.327Z,41.75
2022-09-12T16:26:39.916Z,43.47
2022-09-12T16:29:06.661Z,42.86
2022-09-12T16:31:33.330Z,43.09
2022-09-12T16:34:02.796Z,44.08
2022-09-12T16:36:29.379Z,44.62
2022-09-12T16:38:55.966Z,43.64
2022-09-12T16:41:24.687Z,44.75
2022-09-12T16:43:51.972Z,45.27
2022-09-12T16:46:21.433Z,45.20
2022-09-12T16:48:54.162Z,45.53
2022-09-12T16:51:24.099Z,45.97
2022-09-12T16:53:50.930Z,46.47
2022-09-12T16:56:17.952Z,47.60
2022-09-12T16:58:45.124Z,46.38
2022-09-12T17:01:14.685Z,46.64
2022-09-12T17:03:42.126Z,47.52
2022-09-12T17:06:12.901Z,47.42
2022-09-12T17:08:42.126Z,47.00
2022-09-12T17:11:15.665Z,47.92
2022-09-12T17:14:03.981Z,48.43
2022-09-12T17:16:34.162Z,47.62
2022-09-12T17:19:00.873Z,48.45
2022-09-12T17:21:27.617Z,47.24
2022-09-12T17:23:54.297Z,48.46
2022-09-12T17:26:20.952Z,48.25
2022-09-12T17:28:48.046Z,49.30
2022-09-12T17:31:15.422Z,48.52
2022-09-12T17:33:42.165Z,48.76
2022-09-12T17:36:14.283Z,48.64
2022-09-12T17:38:42.016Z,48.85
2022-09-12T17:41:11.750Z,48.77
2022-09-12T17:43:38.335Z,48.50
2022-09-12T17:46:05.408Z,49.21
2022-09-12T17:48:32.096Z,49.86
2022-09-12T17:50:58.756Z,49.00
2022-09-12T17:53:26.136Z,49.46
2022-09-12T17:55:54.397Z,49.11
2022-09-12T17:58:21.082Z,51.15
2022-09-12T18:00:47.667Z,51.40
2022-09-12T18:03:15.436Z,51.04
2022-09-12T18:06:00.253Z,50.30
2022-09-12T18:08:26.901Z,50.72
2022-09-12T18:10:53.482Z,51.41
2022-09-12T18:13:20.133Z,51.10
2022-09-12T18:15:46.763Z,51.54
2022-09-12T18:18:13.374Z,52.96
2022-09-12T18:20:39.937Z,51.50
2022-09-12T18:23:06.498Z,51.21
2022-09-12T18:25:33.062Z,51.56
2022-09-12T18:27:59.640Z,51.39
2022-09-12T18:30:26.269Z,51.36
2022-09-12T18:32:52.871Z,50.60
2022-09-12T18:35:19.442Z,50.80
2022-09-12T18:37:46.140Z,50.97
2022-09-12T18:40:12.788Z,50.89
2022-09-12T18:42:39.402Z,51.71
2022-09-12T18:45:06.856Z,52.47
2022-09-12T18:47:33.407Z,52.90
2022-09-12T18:49:59.985Z,53.18
2022-09-12T18:52:26.567Z,53.00
2022-09-12T18:54:53.136Z,52.81
2022-09-12T18:57:19.789Z,53.90
2022-09-12T18:59:46.339Z,53.34
2022-09-12T19:02:16.119Z,53.42
2022-09-12T19:04:42.720Z,53.30
2022-09-12T19:07:09.367Z,53.53
2022-09-12T19:09:36.177Z,53.99
2022-09-12T19:12:03.061Z,52.78
2022-09-12T19:14:29.660Z,54.87
2022-09-12T19:16:56.240Z,55.93
2022-09-12T19:19:22.847Z,56.50
2022-09-12T19:21:49.509Z,56.35
2022-09-12T19:24:16.148Z,56.18
2022-09-12T19:26:43.128Z,57.19
2022-09-12T19:29:11.057Z,58.37
2022-09-12T19:31:37.687Z,58.38
2022-09-12T19:34:06.651Z,58.15
2022-09-12T19:36:45.480Z,57.98
2022-09-12T19:39:14.557Z,58.24
2022-09-12T19:41:41.140Z,58.07
2022-09-12T19:44:07.808Z,58.03
2022-09-12T19:46:34.410Z,58.49
2022-09-12T19:49:01.023Z,57.93
2022-09-12T19:51:27.673Z,57.93
2022-09-12T19:53:54.281Z,58.85
2022-09-12T19:56:20.971Z,57.96
2022-09-12T19:58:53.504Z,58.02
2022-09-12T20:01:25.331Z,60.47
2022-09-12T20:03:52.250Z,60.80
2022-09-12T20:06:18.822Z,60.73
2022-09-12T20:08:45.638Z,60.20
2022-09-12T20:11:17.686Z,60.57
2022-09-12T20:13:45.364Z,59.72
2022-09-12T20:16:21.627Z,59.40
2022-09-12T20:19:01.771Z,60.95
2022-09-12T20:21:30.335Z,62.02
2022-09-12T20:24:07.771Z,61.88
2022-09-12T20:26:34.578Z,60.61
2022-09-12T20:29:01.517Z,60.90
2022-09-12T20:31:28.834Z,60.07
2022-09-12T20:33:55.664Z,61.14
2022-09-12T20:36:22.520Z,59.23
2022-09-12T20:38:53.782Z,60.13
2022-09-12T20:41:21.238Z,61.47
2022-09-12T20:43:55.326Z,61.11
2022-09-12T20:46:23.031Z,60.04
2022-09-12T20:48:50.600Z,62.08
2022-09-12T20:51:18.364Z,60.91
2022-09-12T20:53:44.937Z,61.86
2022-09-12T20:56:11.552Z,61.33
2022-09-12T20:58:43.058Z,61.94
2022-09-12T21:01:13.221Z,62.59
2022-09-12T21:03:41.949Z,63.26
2022-09-12T21:06:09.929Z,62.28
2022-09-12T21:08:37.408Z,63.07
2022-09-12T21:11:05.349Z,63.07
2022-09-12T21:13:32.125Z,62.98
2022-09-12T21:16:03.365Z,63.53
2022-09-12T21:18:31.174Z,63.55
2022-09-12T21:20:57.891Z,62.96
2022-09-12T21:23:26.214Z,63.92
2022-09-12T21:25:52.991Z,63.36
2022-09-12T21:28:20.887Z,62.80
2022-09-12T21:30:48.049Z,62.79
2022-09-12T21:33:14.948Z,63.31
2022-09-12T21:35:41.635Z,63.67
2022-09-12T21:38:08.222Z,63.07
2022-09-12T21:40:34.811Z,64.26
2022-09-12T21:43:01.474Z,63.58
2022-09-12T21:45:28.457Z,63.97
2022-09-12T21:47:55.172Z,65.39
2022-09-12T21:50:21.906Z,64.37
2022-09-12T21:52:48.503Z,64.16
2022-09-12T21:55:15.099Z,64.55
2022-09-12T21:57:41.686Z,63.88
2022-09-12T22:00:11.823Z,63.33
2022-09-12T22:02:38.473Z,63.96
2022-09-12T22:05:05.352Z,64.20
2022-09-12T22:07:31.930Z,64.39
2022-09-12T22:09:58.551Z,65.00
2022-09-12T22:12:25.136Z,64.05
2022-09-12T22:14:51.730Z,64.74
2022-09-12T22:17:18.375Z,64.50
2022-09-12T22:19:44.945Z,63.58
2022-09-12T22:22:11.533Z,64.02
2022-09-12T22:24:38.208Z,64.78
2022-09-12T22:27:06.312Z,64.76
2022-09-12T22:29:33.241Z,65.38
2022-09-12T22:32:00.133Z,64.74
2022-09-12T22:34:27.925Z,63.82
2022-09-12T22:36:55.079Z,65.41
2022-09-12T22:39:21.699Z,64.21
2022-09-12T22:41:48.439Z,64.96
2022-09-12T22:44:15.055Z,64.84
2022-09-12T22:46:41.699Z,64.99
2022-09-12T22:49:08.475Z,65.18
2022-09-12T22:51:35.422Z,64.63
2022-09-12T22:54:02.506Z,64.51
2022-09-12T22:56:29.079Z,64.46
2022-09-12T22:58:55.645Z,64.01
2022-09-12T23:01:22.254Z,63.50
2022-09-12T23:03:48.978Z,64.65
2022-09-12T23:06:15.793Z,64.26
2022-09-12T23:08:43.167Z,65.58
2022-09-12T23:13:49.912Z,65.63
2022-09-12T23:16:25.002Z,65.42
2022-09-12T23:18:53.020Z,65.71
2022-09-12T23:21:20.995Z,66.10
2022-09-12T23:23:47.842Z,65.86
2022-09-12T23:26:17.557Z,65.49
2022-09-12T23:28:55.083Z,65.51
2022-09-12T23:31:23.439Z,65.55
2022-09-12T23:33:52.799Z,65.89
2022-09-12T23:36:19.377Z,65.70
2022-09-12T23:38:46.741Z,66.94
2022-09-12T23:41:15.235Z,67.16
2022-09-12T23:43:42.503Z,66.88
2022-09-12T23:46:09.425Z,67.21
2022-09-12T23:48:36.102Z,67.04
2022-09-12T23:51:02.671Z,67.46
2022-09-12T23:53:29.273Z,66.98
2022-09-12T23:55:55.911Z,67.58
2022-09-12T23:58:22.508Z,68.06
